sensor_id;sensor_type;location;lat;lon;timestamp;P1;durP1;ratioP1;P2;durP2;ratioP2
59824;SDS011;45703;50.898;6.054;2023-12-20T00:00:01;17.70;;;9.90;;
59824;SDS011;45703;50.898;6.054;2023-12-20T00:02:26;18.60;;;10.25;;
59824;SDS011;45703;50.898;6.054;2023-12-20T00:04:52;18.40;;;10.75;;
59824;SDS011;45703;50.898;6.054;2023-12-20T00:07:17;18.90;;;10.25;;
59824;SDS011;45703;50.898;6.054;2023-12-20T00:09:45;18.23;;;9.95;;
59824;SDS011;45703;50.898;6.054;2023-12-20T00:12:10;19.17;;;10.68;;
59824;SDS011;45703;50.898;6.054;2023-12-20T00:14:38;15.85;;;9.05;;
59824;SDS011;45703;50.898;6.054;2023-12-20T00:17:03;19.65;;;10.10;;
59824;SDS011;45703;50.898;6.054;2023-12-20T00:19:29;20.30;;;10.00;;
59824;SDS011;45703;50.898;6.054;2023-12-20T00:21:54;18.27;;;9.50;;
59824;SDS011;45703;50.898;6.054;2023-12-20T00:24:20;19.00;;;10.15;;
59824;SDS011;45703;50.898;6.054;2023-12-20T00:26:45;17.80;;;9.93;;
59824;SDS011;45703;50.898;6.054;2023-12-20T00:29:11;16.60;;;9.00;;
59824;SDS011;45703;50.898;6.054;2023-12-20T00:31:37;18.02;;;9.75;;
59824;SDS011;45703;50.898;6.054;2023-12-20T00:34:02;15.98;;;7.53;;
59824;SDS011;45703;50.898;6.054;2023-12-20T00:36:27;17.00;;;7.93;;
59824;SDS011;45703;50.898;6.054;2023-12-20T00:38:53;13.73;;;6.82;;
59824;SDS011;45703;50.898;6.054;2023-12-20T00:41:18;12.82;;;4.97;;
59824;SDS011;45703;50.898;6.054;2023-12-20T00:43:44;11.05;;;4.75;;
59824;SDS011;45703;50.898;6.054;2023-12-20T00:46:09;11.63;;;4.97;;
59824;SDS011;45703;50.898;6.054;2023-12-20T00:48:34;13.30;;;4.47;;
59824;SDS011;45703;50.898;6.054;2023-12-20T00:51:00;12.90;;;5.18;;
59824;SDS011;45703;50.898;6.054;2023-12-20T00:53:25;11.57;;;3.60;;
59824;SDS011;45703;50.898;6.054;2023-12-20T00:55:51;9.18;;;3.45;;
59824;SDS011;45703;50.898;6.054;2023-12-20T00:58:16;10.02;;;2.80;;
59824;SDS011;45703;50.898;6.054;2023-12-20T01:00:42;10.65;;;2.90;;
59824;SDS011;45703;50.898;6.054;2023-12-20T01:03:08;8.30;;;2.20;;
59824;SDS011;45703;50.898;6.054;2023-12-20T01:05:34;8.10;;;2.08;;
59824;SDS011;45703;50.898;6.054;2023-12-20T01:07:59;11.52;;;2.63;;
59824;SDS011;45703;50.898;6.054;2023-12-20T01:10:28;8.50;;;1.80;;
59824;SDS011;45703;50.898;6.054;2023-12-20T01:12:54;8.35;;;2.00;;
59824;SDS011;45703;50.898;6.054;2023-12-20T01:15:20;11.32;;;2.33;;
59824;SDS011;45703;50.898;6.054;2023-12-20T01:17:45;8.45;;;1.80;;
59824;SDS011;45703;50.898;6.054;2023-12-20T01:20:10;8.57;;;1.55;;
59824;SDS011;45703;50.898;6.054;2023-12-20T01:22:36;8.50;;;1.85;;
59824;SDS011;45703;50.898;6.054;2023-12-20T01:25:01;4.47;;;1.27;;
59824;SDS011;45703;50.898;6.054;2023-12-20T01:27:27;10.23;;;1.58;;
59824;SDS011;45703;50.898;6.054;2023-12-20T01:29:53;7.82;;;1.80;;
59824;SDS011;45703;50.898;6.054;2023-12-20T01:32:19;7.35;;;1.67;;
59824;SDS011;45703;50.898;6.054;2023-12-20T01:34:44;6.03;;;1.30;;
59824;SDS011;45703;50.898;6.054;2023-12-20T01:37:10;9.65;;;2.00;;
59824;SDS011;45703;50.898;6.054;2023-12-20T01:39:35;9.25;;;2.30;;
59824;SDS011;45703;50.898;6.054;2023-12-20T01:42:00;10.40;;;2.00;;
59824;SDS011;45703;50.898;6.054;2023-12-20T01:44:29;9.57;;;1.67;;
59824;SDS011;45703;50.898;6.054;2023-12-20T01:46:54;8.55;;;2.13;;
59824;SDS011;45703;50.898;6.054;2023-12-20T01:49:20;9.30;;;2.28;;
59824;SDS011;45703;50.898;6.054;2023-12-20T01:51:46;8.43;;;2.03;;
59824;SDS011;45703;50.898;6.054;2023-12-20T01:54:12;11.18;;;2.47;;
59824;SDS011;45703;50.898;6.054;2023-12-20T01:56:43;7.95;;;2.13;;
59824;SDS011;45703;50.898;6.054;2023-12-20T01:59:08;9.65;;;2.22;;
59824;SDS011;45703;50.898;6.054;2023-12-20T02:01:34;9.63;;;2.60;;
59824;SDS011;45703;50.898;6.054;2023-12-20T02:04:00;9.90;;;3.00;;
59824;SDS011;45703;50.898;6.054;2023-12-20T02:06:29;9.73;;;2.05;;
59824;SDS011;45703;50.898;6.054;2023-12-20T02:08:56;9.07;;;2.55;;
59824;SDS011;45703;50.898;6.054;2023-12-20T02:11:23;12.63;;;2.47;;
59824;SDS011;45703;50.898;6.054;2023-12-20T02:13:51;9.27;;;2.20;;
59824;SDS011;45703;50.898;6.054;2023-12-20T02:16:18;10.00;;;2.05;;
59824;SDS011;45703;50.898;6.054;2023-12-20T02:18:43;8.18;;;2.75;;
59824;SDS011;45703;50.898;6.054;2023-12-20T02:21:09;8.43;;;2.53;;
59824;SDS011;45703;50.898;6.054;2023-12-20T02:23:35;9.27;;;2.40;;
59824;SDS011;45703;50.898;6.054;2023-12-20T02:26:03;8.60;;;2.20;;
59824;SDS011;45703;50.898;6.054;2023-12-20T02:28:32;12.38;;;2.22;;
59824;SDS011;45703;50.898;6.054;2023-12-20T02:30:58;8.68;;;2.10;;
59824;SDS011;45703;50.898;6.054;2023-12-20T02:33:24;7.35;;;2.38;;
59824;SDS011;45703;50.898;6.054;2023-12-20T02:35:53;9.55;;;2.50;;
59824;SDS011;45703;50.898;6.054;2023-12-20T02:38:21;10.98;;;2.78;;
59824;SDS011;45703;50.898;6.054;2023-12-20T02:40:46;7.90;;;2.10;;
59824;SDS011;45703;50.898;6.054;2023-12-20T02:43:12;8.43;;;2.10;;
59824;SDS011;45703;50.898;6.054;2023-12-20T02:45:37;10.13;;;2.38;;
59824;SDS011;45703;50.898;6.054;2023-12-20T02:48:03;8.65;;;2.50;;
59824;SDS011;45703;50.898;6.054;2023-12-20T02:50:28;15.00;;;2.58;;
59824;SDS011;45703;50.898;6.054;2023-12-20T02:52:54;10.52;;;2.78;;
59824;SDS011;45703;50.898;6.054;2023-12-20T02:55:19;11.25;;;2.42;;
59824;SDS011;45703;50.898;6.054;2023-12-20T02:57:47;8.23;;;2.60;;
59824;SDS011;45703;50.898;6.054;2023-12-20T03:00:12;12.63;;;3.17;;
59824;SDS011;45703;50.898;6.054;2023-12-20T03:02:38;8.40;;;2.80;;
59824;SDS011;45703;50.898;6.054;2023-12-20T03:05:03;12.70;;;2.75;;
59824;SDS011;45703;50.898;6.054;2023-12-20T03:07:29;10.48;;;2.80;;
59824;SDS011;45703;50.898;6.054;2023-12-20T03:09:54;12.38;;;2.65;;
59824;SDS011;45703;50.898;6.054;2023-12-20T03:12:20;12.75;;;3.50;;
59824;SDS011;45703;50.898;6.054;2023-12-20T03:14:55;10.10;;;2.78;;
59824;SDS011;45703;50.898;6.054;2023-12-20T03:17:21;10.90;;;2.97;;
59824;SDS011;45703;50.898;6.054;2023-12-20T03:19:51;12.80;;;4.15;;
59824;SDS011;45703;50.898;6.054;2023-12-20T03:22:16;12.35;;;2.80;;
59824;SDS011;45703;50.898;6.054;2023-12-20T03:24:42;12.82;;;3.47;;
59824;SDS011;45703;50.898;6.054;2023-12-20T03:27:07;9.45;;;3.08;;
59824;SDS011;45703;50.898;6.054;2023-12-20T03:29:33;12.85;;;3.20;;
59824;SDS011;45703;50.898;6.054;2023-12-20T03:32:00;14.40;;;2.53;;
59824;SDS011;45703;50.898;6.054;2023-12-20T03:34:26;12.35;;;2.92;;
59824;SDS011;45703;50.898;6.054;2023-12-20T03:36:54;12.02;;;2.75;;
59824;SDS011;45703;50.898;6.054;2023-12-20T03:39:20;10.05;;;2.63;;
59824;SDS011;45703;50.898;6.054;2023-12-20T03:41:50;9.65;;;2.88;;
59824;SDS011;45703;50.898;6.054;2023-12-20T03:44:15;10.80;;;3.13;;
59824;SDS011;45703;50.898;6.054;2023-12-20T03:46:41;10.32;;;3.17;;
59824;SDS011;45703;50.898;6.054;2023-12-20T03:49:06;8.82;;;2.95;;
59824;SDS011;45703;50.898;6.054;2023-12-20T03:51:31;9.32;;;2.90;;
59824;SDS011;45703;50.898;6.054;2023-12-20T03:53:57;10.50;;;2.65;;
59824;SDS011;45703;50.898;6.054;2023-12-20T03:56:22;11.13;;;3.42;;
59824;SDS011;45703;50.898;6.054;2023-12-20T03:58:50;13.32;;;3.08;;
59824;SDS011;45703;50.898;6.054;2023-12-20T04:01:15;12.23;;;2.92;;
59824;SDS011;45703;50.898;6.054;2023-12-20T04:03:43;11.93;;;3.30;;
59824;SDS011;45703;50.898;6.054;2023-12-20T04:06:11;9.90;;;2.80;;
59824;SDS011;45703;50.898;6.054;2023-12-20T04:08:44;9.52;;;2.75;;
59824;SDS011;45703;50.898;6.054;2023-12-20T04:11:12;14.77;;;3.60;;
59824;SDS011;45703;50.898;6.054;2023-12-20T04:13:41;9.32;;;2.60;;
59824;SDS011;45703;50.898;6.054;2023-12-20T04:16:07;12.02;;;3.08;;
59824;SDS011;45703;50.898;6.054;2023-12-20T04:18:32;11.48;;;2.67;;
59824;SDS011;45703;50.898;6.054;2023-12-20T04:20:58;11.27;;;2.20;;
59824;SDS011;45703;50.898;6.054;2023-12-20T04:23:23;9.73;;;2.97;;
59824;SDS011;45703;50.898;6.054;2023-12-20T04:25:49;12.18;;;2.97;;
59824;SDS011;45703;50.898;6.054;2023-12-20T04:28:14;12.85;;;2.63;;
59824;SDS011;45703;50.898;6.054;2023-12-20T04:30:39;9.98;;;2.10;;
59824;SDS011;45703;50.898;6.054;2023-12-20T04:33:07;12.93;;;2.92;;
59824;SDS011;45703;50.898;6.054;2023-12-20T04:35:33;13.35;;;3.20;;
59824;SDS011;45703;50.898;6.054;2023-12-20T04:37:58;12.93;;;3.00;;
59824;SDS011;45703;50.898;6.054;2023-12-20T04:40:23;12.13;;;2.90;;
59824;SDS011;45703;50.898;6.054;2023-12-20T04:42:49;9.48;;;2.60;;
59824;SDS011;45703;50.898;6.054;2023-12-20T04:45:14;11.38;;;2.85;;
59824;SDS011;45703;50.898;6.054;2023-12-20T04:47:41;8.23;;;2.60;;
59824;SDS011;45703;50.898;6.054;2023-12-20T04:50:07;10.82;;;3.08;;
59824;SDS011;45703;50.898;6.054;2023-12-20T04:52:34;11.93;;;2.78;;
59824;SDS011;45703;50.898;6.054;2023-12-20T04:55:00;9.25;;;2.28;;
59824;SDS011;45703;50.898;6.054;2023-12-20T04:57:25;9.18;;;2.65;;
59824;SDS011;45703;50.898;6.054;2023-12-20T04:59:51;9.43;;;2.42;;
59824;SDS011;45703;50.898;6.054;2023-12-20T05:02:16;7.57;;;1.83;;
59824;SDS011;45703;50.898;6.054;2023-12-20T05:04:41;11.38;;;2.80;;
59824;SDS011;45703;50.898;6.054;2023-12-20T05:07:09;9.50;;;2.40;;
59824;SDS011;45703;50.898;6.054;2023-12-20T05:09:35;15.30;;;3.10;;
59824;SDS011;45703;50.898;6.054;2023-12-20T05:12:00;11.43;;;3.20;;
59824;SDS011;45703;50.898;6.054;2023-12-20T05:14:25;9.93;;;2.72;;
59824;SDS011;45703;50.898;6.054;2023-12-20T05:16:51;8.93;;;2.13;;
59824;SDS011;45703;50.898;6.054;2023-12-20T05:19:16;10.43;;;2.75;;
59824;SDS011;45703;50.898;6.054;2023-12-20T05:21:42;8.10;;;1.80;;
59824;SDS011;45703;50.898;6.054;2023-12-20T05:24:07;9.18;;;2.38;;
59824;SDS011;45703;50.898;6.054;2023-12-20T05:26:35;7.72;;;2.30;;
59824;SDS011;45703;50.898;6.054;2023-12-20T05:29:02;11.05;;;2.95;;
59824;SDS011;45703;50.898;6.054;2023-12-20T05:31:28;9.02;;;2.45;;
59824;SDS011;45703;50.898;6.054;2023-12-20T05:33:53;10.48;;;2.40;;
59824;SDS011;45703;50.898;6.054;2023-12-20T05:36:19;11.18;;;2.35;;
59824;SDS011;45703;50.898;6.054;2023-12-20T05:38:46;10.45;;;2.38;;
59824;SDS011;45703;50.898;6.054;2023-12-20T05:41:12;10.90;;;2.58;;
59824;SDS011;45703;50.898;6.054;2023-12-20T05:43:38;13.90;;;2.58;;
59824;SDS011;45703;50.898;6.054;2023-12-20T05:46:04;12.13;;;2.60;;
59824;SDS011;45703;50.898;6.054;2023-12-20T05:48:29;13.07;;;3.00;;
59824;SDS011;45703;50.898;6.054;2023-12-20T05:50:57;9.77;;;3.08;;
59824;SDS011;45703;50.898;6.054;2023-12-20T05:53:22;13.35;;;3.15;;
59824;SDS011;45703;50.898;6.054;2023-12-20T05:55:48;9.07;;;3.00;;
59824;SDS011;45703;50.898;6.054;2023-12-20T05:58:21;12.55;;;2.53;;
59824;SDS011;45703;50.898;6.054;2023-12-20T06:00:49;9.35;;;2.65;;
59824;SDS011;45703;50.898;6.054;2023-12-20T06:03:15;9.07;;;2.53;;
59824;SDS011;45703;50.898;6.054;2023-12-20T06:05:40;14.52;;;3.40;;
59824;SDS011;45703;50.898;6.054;2023-12-20T06:08:06;15.82;;;3.10;;
59824;SDS011;45703;50.898;6.054;2023-12-20T06:10:36;9.82;;;2.90;;
59824;SDS011;45703;50.898;6.054;2023-12-20T06:13:01;10.68;;;2.92;;
59824;SDS011;45703;50.898;6.054;2023-12-20T06:15:29;13.85;;;3.47;;
59824;SDS011;45703;50.898;6.054;2023-12-20T06:17:57;10.93;;;2.90;;
59824;SDS011;45703;50.898;6.054;2023-12-20T06:20:23;14.70;;;3.20;;
59824;SDS011;45703;50.898;6.054;2023-12-20T06:22:48;14.95;;;4.03;;
59824;SDS011;45703;50.898;6.054;2023-12-20T06:25:18;16.87;;;3.87;;
59824;SDS011;45703;50.898;6.054;2023-12-20T06:27:46;12.32;;;2.67;;
59824;SDS011;45703;50.898;6.054;2023-12-20T06:30:11;11.18;;;3.08;;
59824;SDS011;45703;50.898;6.054;2023-12-20T06:32:39;10.52;;;3.28;;
59824;SDS011;45703;50.898;6.054;2023-12-20T06:35:05;12.55;;;3.40;;
59824;SDS011;45703;50.898;6.054;2023-12-20T06:37:31;12.50;;;2.72;;
59824;SDS011;45703;50.898;6.054;2023-12-20T06:39:56;10.25;;;3.17;;
59824;SDS011;45703;50.898;6.054;2023-12-20T06:42:29;14.20;;;3.30;;
59824;SDS011;45703;50.898;6.054;2023-12-20T06:44:54;11.52;;;2.78;;
59824;SDS011;45703;50.898;6.054;2023-12-20T06:47:22;11.85;;;3.42;;
59824;SDS011;45703;50.898;6.054;2023-12-20T06:49:55;10.18;;;2.70;;
59824;SDS011;45703;50.898;6.054;2023-12-20T06:52:25;16.83;;;2.70;;
59824;SDS011;45703;50.898;6.054;2023-12-20T06:54:51;11.45;;;3.47;;
59824;SDS011;45703;50.898;6.054;2023-12-20T06:57:16;14.77;;;3.22;;
59824;SDS011;45703;50.898;6.054;2023-12-20T06:59:44;10.98;;;3.85;;
59824;SDS011;45703;50.898;6.054;2023-12-20T07:02:14;10.07;;;3.28;;
59824;SDS011;45703;50.898;6.054;2023-12-20T07:04:46;18.55;;;3.35;;
59824;SDS011;45703;50.898;6.054;2023-12-20T07:07:11;12.13;;;2.83;;
59824;SDS011;45703;50.898;6.054;2023-12-20T07:09:37;15.90;;;3.70;;
59824;SDS011;45703;50.898;6.054;2023-12-20T07:12:07;10.35;;;3.17;;
59824;SDS011;45703;50.898;6.054;2023-12-20T07:14:33;14.13;;;3.80;;
59824;SDS011;45703;50.898;6.054;2023-12-20T07:16:58;12.00;;;3.63;;
59824;SDS011;45703;50.898;6.054;2023-12-20T07:19:24;11.88;;;3.40;;
59824;SDS011;45703;50.898;6.054;2023-12-20T07:21:49;15.25;;;3.83;;
59824;SDS011;45703;50.898;6.054;2023-12-20T07:24:14;10.05;;;4.13;;
59824;SDS011;45703;50.898;6.054;2023-12-20T07:26:40;13.15;;;3.83;;
59824;SDS011;45703;50.898;6.054;2023-12-20T07:29:05;13.13;;;4.10;;
59824;SDS011;45703;50.898;6.054;2023-12-20T07:31:31;13.00;;;3.28;;
59824;SDS011;45703;50.898;6.054;2023-12-20T07:34:06;10.95;;;3.45;;
59824;SDS011;45703;50.898;6.054;2023-12-20T07:36:32;11.15;;;3.72;;
59824;SDS011;45703;50.898;6.054;2023-12-20T07:38:59;15.95;;;3.30;;
59824;SDS011;45703;50.898;6.054;2023-12-20T07:41:25;11.07;;;3.50;;
59824;SDS011;45703;50.898;6.054;2023-12-20T07:43:50;11.52;;;3.63;;
59824;SDS011;45703;50.898;6.054;2023-12-20T07:46:16;10.05;;;3.22;;
59824;SDS011;45703;50.898;6.054;2023-12-20T07:48:43;8.00;;;2.92;;
59824;SDS011;45703;50.898;6.054;2023-12-20T07:51:11;13.63;;;3.15;;
59824;SDS011;45703;50.898;6.054;2023-12-20T07:53:36;10.48;;;2.47;;
59824;SDS011;45703;50.898;6.054;2023-12-20T07:56:02;12.23;;;3.17;;
59824;SDS011;45703;50.898;6.054;2023-12-20T07:58:38;9.10;;;2.92;;
59824;SDS011;45703;50.898;6.054;2023-12-20T08:01:04;10.38;;;2.75;;
59824;SDS011;45703;50.898;6.054;2023-12-20T08:03:31;10.80;;;3.05;;
59824;SDS011;45703;50.898;6.054;2023-12-20T08:05:57;7.82;;;2.45;;
59824;SDS011;45703;50.898;6.054;2023-12-20T08:08:28;9.10;;;2.78;;
59824;SDS011;45703;50.898;6.054;2023-12-20T08:10:53;10.52;;;3.25;;
59824;SDS011;45703;50.898;6.054;2023-12-20T08:13:19;9.20;;;3.00;;
59824;SDS011;45703;50.898;6.054;2023-12-20T08:15:44;11.70;;;3.03;;
59824;SDS011;45703;50.898;6.054;2023-12-20T08:18:14;12.17;;;3.47;;
59824;SDS011;45703;50.898;6.054;2023-12-20T08:20:45;11.88;;;3.13;;
59824;SDS011;45703;50.898;6.054;2023-12-20T08:23:13;15.68;;;3.78;;
59824;SDS011;45703;50.898;6.054;2023-12-20T08:25:41;13.10;;;3.83;;
59824;SDS011;45703;50.898;6.054;2023-12-20T08:28:14;11.20;;;3.15;;
59824;SDS011;45703;50.898;6.054;2023-12-20T08:30:39;8.63;;;3.05;;
59824;SDS011;45703;50.898;6.054;2023-12-20T08:33:18;12.40;;;3.17;;
59824;SDS011;45703;50.898;6.054;2023-12-20T08:35:44;8.90;;;2.88;;
59824;SDS011;45703;50.898;6.054;2023-12-20T08:38:16;19.00;;;3.20;;
59824;SDS011;45703;50.898;6.054;2023-12-20T08:40:49;9.15;;;3.75;;
59824;SDS011;45703;50.898;6.054;2023-12-20T08:43:15;11.68;;;3.13;;
59824;SDS011;45703;50.898;6.054;2023-12-20T08:45:47;12.10;;;3.03;;
59824;SDS011;45703;50.898;6.054;2023-12-20T08:48:13;8.80;;;2.75;;
59824;SDS011;45703;50.898;6.054;2023-12-20T08:50:40;14.32;;;3.40;;
59824;SDS011;45703;50.898;6.054;2023-12-20T08:53:06;13.35;;;3.88;;
59824;SDS011;45703;50.898;6.054;2023-12-20T08:55:33;10.02;;;2.75;;
59824;SDS011;45703;50.898;6.054;2023-12-20T08:57:59;15.35;;;2.92;;
59824;SDS011;45703;50.898;6.054;2023-12-20T09:00:24;12.35;;;3.33;;
59824;SDS011;45703;50.898;6.054;2023-12-20T09:02:52;8.13;;;2.88;;
59824;SDS011;45703;50.898;6.054;2023-12-20T09:05:26;11.43;;;3.38;;
59824;SDS011;45703;50.898;6.054;2023-12-20T09:07:51;12.10;;;3.10;;
59824;SDS011;45703;50.898;6.054;2023-12-20T09:10:17;10.32;;;3.13;;
59824;SDS011;45703;50.898;6.054;2023-12-20T09:12:50;13.27;;;3.17;;
59824;SDS011;45703;50.898;6.054;2023-12-20T09:15:24;11.68;;;2.80;;
59824;SDS011;45703;50.898;6.054;2023-12-20T09:17:50;9.15;;;3.20;;
59824;SDS011;45703;50.898;6.054;2023-12-20T09:20:19;11.60;;;3.15;;
59824;SDS011;45703;50.898;6.054;2023-12-20T09:22:44;11.98;;;2.97;;
59824;SDS011;45703;50.898;6.054;2023-12-20T09:25:10;11.35;;;3.83;;
59824;SDS011;45703;50.898;6.054;2023-12-20T09:27:38;11.07;;;3.35;;
59824;SDS011;45703;50.898;6.054;2023-12-20T09:30:04;12.15;;;3.33;;
59824;SDS011;45703;50.898;6.054;2023-12-20T09:32:30;14.23;;;4.22;;
59824;SDS011;45703;50.898;6.054;2023-12-20T09:34:56;11.57;;;3.15;;
59824;SDS011;45703;50.898;6.054;2023-12-20T09:37:34;11.35;;;2.92;;
59824;SDS011;45703;50.898;6.054;2023-12-20T09:40:11;8.77;;;2.55;;
59824;SDS011;45703;50.898;6.054;2023-12-20T09:42:51;10.88;;;2.33;;
59824;SDS011;45703;50.898;6.054;2023-12-20T09:45:24;10.07;;;2.95;;
59824;SDS011;45703;50.898;6.054;2023-12-20T09:47:57;8.38;;;2.60;;
59824;SDS011;45703;50.898;6.054;2023-12-20T09:50:31;10.50;;;2.83;;
59824;SDS011;45703;50.898;6.054;2023-12-20T09:52:58;11.40;;;2.65;;
59824;SDS011;45703;50.898;6.054;2023-12-20T09:55:30;10.30;;;2.95;;
59824;SDS011;45703;50.898;6.054;2023-12-20T09:58:04;11.70;;;2.60;;
59824;SDS011;45703;50.898;6.054;2023-12-20T10:00:31;12.52;;;2.38;;
59824;SDS011;45703;50.898;6.054;2023-12-20T10:02:57;9.15;;;2.88;;
59824;SDS011;45703;50.898;6.054;2023-12-20T10:05:32;12.70;;;2.60;;
59824;SDS011;45703;50.898;6.054;2023-12-20T10:07:58;9.75;;;2.58;;
59824;SDS011;45703;50.898;6.054;2023-12-20T10:10:27;10.35;;;2.78;;
59824;SDS011;45703;50.898;6.054;2023-12-20T10:13:02;8.38;;;2.33;;
59824;SDS011;45703;50.898;6.054;2023-12-20T10:15:38;13.15;;;3.15;;
59824;SDS011;45703;50.898;6.054;2023-12-20T10:18:04;10.02;;;2.13;;
59824;SDS011;45703;50.898;6.054;2023-12-20T10:20:30;9.68;;;2.50;;
59824;SDS011;45703;50.898;6.054;2023-12-20T10:22:56;11.63;;;3.25;;
59824;SDS011;45703;50.898;6.054;2023-12-20T10:25:23;15.50;;;4.05;;
59824;SDS011;45703;50.898;6.054;2023-12-20T10:27:49;11.70;;;2.90;;
59824;SDS011;45703;50.898;6.054;2023-12-20T10:30:22;11.20;;;3.05;;
59824;SDS011;45703;50.898;6.054;2023-12-20T10:32:49;8.45;;;1.77;;
59824;SDS011;45703;50.898;6.054;2023-12-20T10:35:16;15.40;;;3.33;;
59824;SDS011;45703;50.898;6.054;2023-12-20T10:37:44;10.73;;;2.83;;
59824;SDS011;45703;50.898;6.054;2023-12-20T10:40:09;10.73;;;2.40;;
59824;SDS011;45703;50.898;6.054;2023-12-20T10:42:37;7.53;;;2.10;;
59824;SDS011;45703;50.898;6.054;2023-12-20T10:45:04;10.10;;;2.20;;
59824;SDS011;45703;50.898;6.054;2023-12-20T10:47:30;9.18;;;2.75;;
59824;SDS011;45703;50.898;6.054;2023-12-20T10:49:57;12.10;;;2.60;;
59824;SDS011;45703;50.898;6.054;2023-12-20T10:52:24;11.32;;;2.33;;
59824;SDS011;45703;50.898;6.054;2023-12-20T10:54:50;9.15;;;2.50;;
59824;SDS011;45703;50.898;6.054;2023-12-20T10:57:16;7.95;;;2.13;;
59824;SDS011;45703;50.898;6.054;2023-12-20T10:59:43;13.40;;;2.60;;
59824;SDS011;45703;50.898;6.054;2023-12-20T11:02:12;14.05;;;2.95;;
59824;SDS011;45703;50.898;6.054;2023-12-20T11:04:47;9.82;;;2.58;;
59824;SDS011;45703;50.898;6.054;2023-12-20T11:07:23;13.02;;;2.92;;
59824;SDS011;45703;50.898;6.054;2023-12-20T11:09:59;11.25;;;2.45;;
59824;SDS011;45703;50.898;6.054;2023-12-20T11:12:41;11.95;;;3.00;;
59824;SDS011;45703;50.898;6.054;2023-12-20T11:15:11;7.53;;;2.33;;
59824;SDS011;45703;50.898;6.054;2023-12-20T11:17:38;10.88;;;3.10;;
59824;SDS011;45703;50.898;6.054;2023-12-20T11:20:07;13.07;;;3.10;;
59824;SDS011;45703;50.898;6.054;2023-12-20T11:22:35;10.45;;;2.80;;
59824;SDS011;45703;50.898;6.054;2023-12-20T11:25:06;9.73;;;3.13;;
59824;SDS011;45703;50.898;6.054;2023-12-20T11:27:42;9.68;;;2.55;;
59824;SDS011;45703;50.898;6.054;2023-12-20T11:30:08;11.52;;;2.75;;
59824;SDS011;45703;50.898;6.054;2023-12-20T11:32:35;13.68;;;3.15;;
59824;SDS011;45703;50.898;6.054;2023-12-20T11:35:16;10.63;;;2.80;;
59824;SDS011;45703;50.898;6.054;2023-12-20T11:37:43;7.85;;;2.20;;
59824;SDS011;45703;50.898;6.054;2023-12-20T11:40:16;10.32;;;3.53;;
59824;SDS011;45703;50.898;6.054;2023-12-20T11:42:43;11.43;;;3.33;;
59824;SDS011;45703;50.898;6.054;2023-12-20T11:45:14;12.70;;;3.03;;
59824;SDS011;45703;50.898;6.054;2023-12-20T11:47:49;14.88;;;3.58;;
59824;SDS011;45703;50.898;6.054;2023-12-20T11:50:18;8.40;;;3.25;;
59824;SDS011;45703;50.898;6.054;2023-12-20T11:52:44;9.10;;;3.03;;
59824;SDS011;45703;50.898;6.054;2023-12-20T11:55:10;9.75;;;3.38;;
59824;SDS011;45703;50.898;6.054;2023-12-20T11:57:37;8.55;;;2.47;;
59824;SDS011;45703;50.898;6.054;2023-12-20T12:00:05;10.15;;;2.95;;
59824;SDS011;45703;50.898;6.054;2023-12-20T12:02:39;10.15;;;3.03;;
59824;SDS011;45703;50.898;6.054;2023-12-20T12:05:05;10.20;;;3.10;;
59824;SDS011;45703;50.898;6.054;2023-12-20T12:07:40;10.82;;;2.55;;
59824;SDS011;45703;50.898;6.054;2023-12-20T12:10:06;12.43;;;3.50;;
59824;SDS011;45703;50.898;6.054;2023-12-20T12:12:33;9.77;;;2.58;;
59824;SDS011;45703;50.898;6.054;2023-12-20T12:14:58;13.13;;;2.90;;
59824;SDS011;45703;50.898;6.054;2023-12-20T12:17:26;12.48;;;3.63;;
59824;SDS011;45703;50.898;6.054;2023-12-20T12:20:01;11.48;;;3.30;;
59824;SDS011;45703;50.898;6.054;2023-12-20T12:22:30;12.20;;;3.08;;
59824;SDS011;45703;50.898;6.054;2023-12-20T12:24:58;10.65;;;3.17;;
59824;SDS011;45703;50.898;6.054;2023-12-20T12:27:33;9.43;;;2.85;;
59824;SDS011;45703;50.898;6.054;2023-12-20T12:30:00;8.80;;;3.03;;
59824;SDS011;45703;50.898;6.054;2023-12-20T12:32:31;10.70;;;3.10;;
59824;SDS011;45703;50.898;6.054;2023-12-20T12:34:59;13.00;;;3.17;;
59824;SDS011;45703;50.898;6.054;2023-12-20T12:37:28;11.05;;;2.65;;
59824;SDS011;45703;50.898;6.054;2023-12-20T12:39:58;11.95;;;3.15;;
59824;SDS011;45703;50.898;6.054;2023-12-20T12:42:31;9.57;;;3.33;;
59824;SDS011;45703;50.898;6.054;2023-12-20T12:44:56;12.50;;;2.55;;
59824;SDS011;45703;50.898;6.054;2023-12-20T12:47:22;11.60;;;2.65;;
59824;SDS011;45703;50.898;6.054;2023-12-20T12:49:50;8.32;;;2.28;;
59824;SDS011;45703;50.898;6.054;2023-12-20T12:52:16;7.78;;;2.47;;
59824;SDS011;45703;50.898;6.054;2023-12-20T12:54:44;13.75;;;3.13;;
59824;SDS011;45703;50.898;6.054;2023-12-20T12:57:19;12.55;;;3.00;;
59824;SDS011;45703;50.898;6.054;2023-12-20T12:59:46;13.35;;;3.30;;
59824;SDS011;45703;50.898;6.054;2023-12-20T13:02:12;10.60;;;2.50;;
59824;SDS011;45703;50.898;6.054;2023-12-20T13:04:42;10.65;;;3.05;;
59824;SDS011;45703;50.898;6.054;2023-12-20T13:07:08;10.23;;;2.50;;
59824;SDS011;45703;50.898;6.054;2023-12-20T13:09:37;8.45;;;2.90;;
59824;SDS011;45703;50.898;6.054;2023-12-20T13:12:03;9.65;;;3.38;;
59824;SDS011;45703;50.898;6.054;2023-12-20T13:14:31;12.38;;;2.90;;
59824;SDS011;45703;50.898;6.054;2023-12-20T13:17:01;11.15;;;3.58;;
59824;SDS011;45703;50.898;6.054;2023-12-20T13:19:31;11.05;;;3.65;;
59824;SDS011;45703;50.898;6.054;2023-12-20T13:21:57;8.65;;;3.05;;
59824;SDS011;45703;50.898;6.054;2023-12-20T13:24:30;9.10;;;2.58;;
59824;SDS011;45703;50.898;6.054;2023-12-20T13:26:55;10.23;;;3.30;;
59824;SDS011;45703;50.898;6.054;2023-12-20T13:29:21;9.30;;;3.28;;
59824;SDS011;45703;50.898;6.054;2023-12-20T13:31:47;10.68;;;3.13;;
59824;SDS011;45703;50.898;6.054;2023-12-20T13:34:12;8.82;;;2.97;;
59824;SDS011;45703;50.898;6.054;2023-12-20T13:36:43;14.65;;;3.78;;
59824;SDS011;45703;50.898;6.054;2023-12-20T13:39:12;10.32;;;3.42;;
59824;SDS011;45703;50.898;6.054;2023-12-20T13:41:38;9.18;;;2.95;;
59824;SDS011;45703;50.898;6.054;2023-12-20T13:44:03;11.55;;;3.20;;
59824;SDS011;45703;50.898;6.054;2023-12-20T13:46:29;13.27;;;3.20;;
59824;SDS011;45703;50.898;6.054;2023-12-20T13:48:55;10.70;;;3.20;;
59824;SDS011;45703;50.898;6.054;2023-12-20T13:51:20;12.57;;;3.45;;
59824;SDS011;45703;50.898;6.054;2023-12-20T13:53:46;11.50;;;3.22;;
59824;SDS011;45703;50.898;6.054;2023-12-20T13:56:13;12.27;;;3.20;;
59824;SDS011;45703;50.898;6.054;2023-12-20T13:58:48;11.75;;;3.08;;
59824;SDS011;45703;50.898;6.054;2023-12-20T14:01:16;13.82;;;3.72;;
59824;SDS011;45703;50.898;6.054;2023-12-20T14:03:45;9.05;;;2.83;;
59824;SDS011;45703;50.898;6.054;2023-12-20T14:06:10;11.48;;;2.97;;
59824;SDS011;45703;50.898;6.054;2023-12-20T14:08:36;9.35;;;2.65;;
59824;SDS011;45703;50.898;6.054;2023-12-20T14:11:02;11.55;;;3.08;;
59824;SDS011;45703;50.898;6.054;2023-12-20T14:13:27;10.63;;;3.30;;
59824;SDS011;45703;50.898;6.054;2023-12-20T14:15:53;11.27;;;3.22;;
59824;SDS011;45703;50.898;6.054;2023-12-20T14:18:19;8.35;;;2.60;;
59824;SDS011;45703;50.898;6.054;2023-12-20T14:20:45;9.75;;;2.97;;
59824;SDS011;45703;50.898;6.054;2023-12-20T14:23:12;10.15;;;3.53;;
59824;SDS011;45703;50.898;6.054;2023-12-20T14:25:40;11.05;;;3.17;;
59824;SDS011;45703;50.898;6.054;2023-12-20T14:28:06;10.40;;;2.92;;
59824;SDS011;45703;50.898;6.054;2023-12-20T14:30:32;8.57;;;2.97;;
59824;SDS011;45703;50.898;6.054;2023-12-20T14:32:57;9.07;;;3.00;;
59824;SDS011;45703;50.898;6.054;2023-12-20T14:35:23;10.25;;;3.03;;
59824;SDS011;45703;50.898;6.054;2023-12-20T14:37:49;11.93;;;2.90;;